createdAt,value
2019-05-15T12:13:51.519Z,16.90
2019-05-15T12:16:21.397Z,16.60
2019-05-15T12:18:51.377Z,16.30
2019-05-15T12:30:19.944Z,15.80
2019-05-15T12:33:00.232Z,15.90
2019-05-15T12:35:39.758Z,15.90
2019-05-15T12:38:10.321Z,15.90
2019-05-15T13:05:36.003Z,16.20
2019-05-15T13:08:59.528Z,16.20
2019-05-15T13:09:20.693Z,16.00
2019-05-15T13:11:39.273Z,16.30
2019-05-15T13:24:23.777Z,16.50
2019-05-15T13:49:27.973Z,16.50
2019-05-15T13:51:59.320Z,16.60
2019-05-15T13:54:32.081Z,16.60
2019-05-15T13:57:03.254Z,16.60
2019-05-15T13:59:33.193Z,16.60
2019-05-15T14:02:03.132Z,16.70
2019-05-15T14:04:38.490Z,16.70
2019-05-15T14:07:08.646Z,16.70
2019-05-15T14:09:44.390Z,16.70
2019-05-15T14:12:13.040Z,16.70
2019-05-15T14:14:43.223Z,16.80
2019-05-15T14:17:14.557Z,16.80
2019-05-15T14:20:02.478Z,16.80
2019-05-15T14:22:35.542Z,16.80
2019-05-15T14:25:08.823Z,16.80
2019-05-15T14:27:39.859Z,16.80
2019-05-15T14:30:10.920Z,16.80
2019-05-15T14:32:40.844Z,16.80
2019-05-15T14:35:10.683Z,16.90
2019-05-15T14:37:40.609Z,16.80
2019-05-15T14:40:10.867Z,16.90
2019-05-15T14:42:41.843Z,16.90
2019-05-15T14:45:12.168Z,16.90
2019-05-15T14:47:42.099Z,16.90
2019-05-15T14:50:13.062Z,16.90
2019-05-15T14:52:42.971Z,16.90
2019-05-15T14:55:13.147Z,16.90
2019-05-15T14:57:48.504Z,16.90
2019-05-15T15:00:19.992Z,16.90
2019-05-15T15:02:52.058Z,16.90
2019-05-15T15:05:23.135Z,16.90
2019-05-15T15:07:53.221Z,17.00
2019-05-15T15:10:23.453Z,17.00
2019-05-15T15:12:53.361Z,17.00
2019-05-15T15:15:23.216Z,17.00
2019-05-15T15:17:58.138Z,17.00
2019-05-15T15:20:28.584Z,17.00
2019-05-15T15:22:58.898Z,17.00
2019-05-15T15:25:28.861Z,17.00
2019-05-15T15:28:04.496Z,17.00
2019-05-15T15:30:40.799Z,17.00
2019-05-15T15:33:15.086Z,17.00
2019-05-15T15:35:49.266Z,17.00
2019-05-15T15:38:43.726Z,17.00
2019-05-15T15:41:12.450Z,17.00
2019-05-15T15:45:19.381Z,17.00
2019-05-15T15:47:53.518Z,17.00
2019-05-15T15:50:28.773Z,17.00
2019-05-15T15:52:59.581Z,17.10
2019-05-15T15:55:34.488Z,17.10
2019-05-15T15:58:08.758Z,17.10
2019-05-15T16:00:39.110Z,17.10
2019-05-15T16:03:09.012Z,17.10
2019-05-15T16:05:38.959Z,17.10
2019-05-15T16:08:28.545Z,17.10
2019-05-15T16:10:59.093Z,17.00
2019-05-15T16:13:29.396Z,17.10
2019-05-15T16:15:59.475Z,17.00
2019-05-15T16:18:29.447Z,17.00
2019-05-15T16:20:59.386Z,17.00
2019-05-15T16:23:29.285Z,17.00
2019-05-15T16:26:01.012Z,17.00
2019-05-15T16:28:38.807Z,17.00
2019-05-15T16:31:09.021Z,17.00
2019-05-15T16:33:39.110Z,17.00
2019-05-15T16:36:09.084Z,17.00
2019-05-15T16:38:39.225Z,17.00
2019-05-15T16:41:09.232Z,17.00
2019-05-15T16:43:39.146Z,17.00
2019-05-15T16:46:09.327Z,17.00
2019-05-15T16:48:43.423Z,17.00
2019-05-15T16:51:13.368Z,17.00
2019-05-15T16:53:48.935Z,17.00
2019-05-15T16:56:19.182Z,17.00
2019-05-15T16:58:49.226Z,17.00
2019-05-15T17:01:19.222Z,17.00
2019-05-15T17:03:49.162Z,17.00
2019-05-15T17:06:19.393Z,17.00
2019-05-15T17:09:20.843Z,17.00
2019-05-15T17:11:40.442Z,17.00
2019-05-15T17:14:10.312Z,17.00
2019-05-15T17:16:42.047Z,17.00
2019-05-15T17:19:35.642Z,17.00
2019-05-15T17:22:08.983Z,17.00
2019-05-15T17:24:41.647Z,17.00
2019-05-15T17:27:15.790Z,17.00
2019-05-15T17:29:45.778Z,17.00
2019-05-15T17:32:18.477Z,17.00
2019-05-15T17:34:49.470Z,17.00
2019-05-15T17:37:19.385Z,17.00
2019-05-15T17:39:53.271Z,17.00
2019-05-15T17:42:23.145Z,17.00
2019-05-15T17:44:53.016Z,17.00
2019-05-15T17:47:22.909Z,17.00
2019-05-15T17:50:29.252Z,17.00
2019-05-15T17:53:02.133Z,17.00
2019-05-15T17:56:02.439Z,16.90
2019-05-15T17:58:38.253Z,17.00
2019-05-15T18:01:08.855Z,16.90
2019-05-15T18:03:39.406Z,16.90
2019-05-15T18:06:09.433Z,16.90
2019-05-15T18:08:39.875Z,16.90
2019-05-15T18:11:09.809Z,16.90
2019-05-15T18:13:41.035Z,16.90
2019-05-15T18:16:13.433Z,16.90
2019-05-15T18:18:44.628Z,16.90
2019-05-15T18:21:19.709Z,16.90
2019-05-15T18:23:53.911Z,16.80
2019-05-15T18:26:23.760Z,16.80
2019-05-15T18:28:58.459Z,16.80
2019-05-15T18:31:29.989Z,16.80
2019-05-15T18:33:59.883Z,16.80
2019-05-15T18:36:29.789Z,16.80
2019-05-15T18:38:59.757Z,16.80
2019-05-15T18:41:29.688Z,16.80
2019-05-15T18:43:59.522Z,16.80
2019-05-15T18:46:29.450Z,16.80
2019-05-15T18:49:03.479Z,16.80
2019-05-15T18:51:33.391Z,16.80
2019-05-15T18:54:03.302Z,16.70
2019-05-15T18:56:34.391Z,16.70
2019-05-15T18:59:12.701Z,16.70
2019-05-15T19:02:00.462Z,16.60
2019-05-15T19:04:28.895Z,16.60
2019-05-15T19:06:58.874Z,16.60
2019-05-15T19:09:35.186Z,16.60
2019-05-15T19:12:09.303Z,16.60
2019-05-15T19:14:40.508Z,16.50
2019-05-15T19:17:10.374Z,16.60
2019-05-15T19:19:40.386Z,16.50
2019-05-15T19:22:10.318Z,16.50
2019-05-15T19:24:40.327Z,16.50
2019-05-15T19:27:10.184Z,16.50
2019-05-15T19:29:48.008Z,16.50
2019-05-15T19:32:54.237Z,16.50
2019-05-15T19:35:24.250Z,16.40
2019-05-15T19:37:54.133Z,16.40
2019-05-15T19:40:24.053Z,16.40
2019-05-15T19:42:53.832Z,16.30
2019-05-15T19:45:24.711Z,16.30
2019-05-15T19:47:54.654Z,16.30
2019-05-15T19:50:24.965Z,16.30
2019-05-15T19:53:00.707Z,16.30
2019-05-15T19:55:30.617Z,16.30
2019-05-15T19:58:08.674Z,16.30
2019-05-15T20:00:38.826Z,16.30
2019-05-15T20:03:10.868Z,16.30
2019-05-15T20:05:40.766Z,16.30
2019-05-15T20:08:15.899Z,16.30
2019-05-15T20:10:48.557Z,16.30
2019-05-15T20:13:18.849Z,16.30
2019-05-15T20:15:51.262Z,16.20
2019-05-15T20:18:21.204Z,16.20
2019-05-15T20:20:51.124Z,16.20
2019-05-15T20:23:21.118Z,16.20
2019-05-15T20:25:51.101Z,16.20
2019-05-15T20:28:34.549Z,16.20
2019-05-15T20:31:04.373Z,16.20
2019-05-15T20:33:34.284Z,16.20
2019-05-15T20:36:04.131Z,16.20
2019-05-15T20:38:39.521Z,16.10
2019-05-15T20:41:09.635Z,16.10
2019-05-15T20:43:41.028Z,16.10
2019-05-15T20:46:10.855Z,16.10
2019-05-15T20:48:40.798Z,16.10
2019-05-15T20:51:10.732Z,16.10
2019-05-15T20:53:40.575Z,16.10
2019-05-15T20:56:10.484Z,16.00
2019-05-15T20:59:18.224Z,16.00
2019-05-15T21:01:51.203Z,16.00
2019-05-15T21:04:23.730Z,16.00
2019-05-15T21:06:52.644Z,16.00
2019-05-15T21:09:40.415Z,16.00
2019-05-15T21:12:11.304Z,16.00
2019-05-15T21:14:41.204Z,15.90
2019-05-15T21:17:11.051Z,15.90
2019-05-15T21:19:40.993Z,15.90
2019-05-15T21:22:11.105Z,15.90
2019-05-15T21:24:43.051Z,15.90
2019-05-15T21:27:13.250Z,15.90
2019-05-15T21:30:01.544Z,15.90
2019-05-15T21:32:31.674Z,15.90
2019-05-15T21:35:01.592Z,15.90
2019-05-15T21:37:31.448Z,15.90
2019-05-15T21:40:22.784Z,15.80
2019-05-15T21:42:52.706Z,15.80
2019-05-15T21:45:40.955Z,15.80
2019-05-15T21:48:11.957Z,15.80
2019-05-15T21:50:42.397Z,15.70
2019-05-15T21:53:12.678Z,15.70
2019-05-15T21:55:42.533Z,15.70
2019-05-15T21:58:12.486Z,15.70
2019-05-15T22:00:45.462Z,15.70
2019-05-15T22:03:19.487Z,15.70
2019-05-15T22:05:48.766Z,15.70
2019-05-15T22:09:18.414Z,15.70
2019-05-15T22:11:49.755Z,15.70
2019-05-15T22:14:20.817Z,15.60
2019-05-15T22:16:50.653Z,15.60
2019-05-15T22:19:20.878Z,15.60
2019-05-15T22:21:50.823Z,15.60
2019-05-15T22:24:24.424Z,15.60
2019-05-15T22:26:54.553Z,15.60
2019-05-15T22:29:24.496Z,15.60
2019-05-15T22:31:54.425Z,15.60
2019-05-15T22:34:24.377Z,15.50
2019-05-15T22:36:54.250Z,15.50
2019-05-15T22:39:28.252Z,15.50
2019-05-15T22:41:58.541Z,15.50
2019-05-15T22:44:28.497Z,15.50
2019-05-15T22:46:58.343Z,15.50
2019-05-15T22:49:35.041Z,15.40
2019-05-15T22:52:04.964Z,15.40
2019-05-15T22:54:34.814Z,15.40
2019-05-15T22:57:04.753Z,15.40
2019-05-15T22:59:40.877Z,15.40
2019-05-15T23:02:10.765Z,15.40
2019-05-15T23:04:40.673Z,15.40
2019-05-15T23:07:10.529Z,15.30
2019-05-15T23:09:48.974Z,15.30
2019-05-15T23:12:18.567Z,15.30
2019-05-15T23:14:48.632Z,15.30
2019-05-15T23:17:18.525Z,15.30
2019-05-15T23:19:52.132Z,15.30
2019-05-15T23:22:22.012Z,15.20
2019-05-15T23:24:52.247Z,15.20
2019-05-15T23:27:22.136Z,15.20
2019-05-15T23:29:52.098Z,15.20
2019-05-15T23:32:21.990Z,15.20
2019-05-15T23:34:51.893Z,15.20
2019-05-15T23:37:21.739Z,15.10
2019-05-15T23:39:51.695Z,15.10
2019-05-15T23:42:21.581Z,15.10
2019-05-15T23:44:51.470Z,15.10
2019-05-15T23:47:21.353Z,15.10
2019-05-15T23:49:51.277Z,15.10
2019-05-15T23:52:21.195Z,15.10
2019-05-15T23:54:51.089Z,15.10
2019-05-15T23:57:20.929Z,15.00
2019-05-15T23:59:56.372Z,15.00
